2018 MXGP Results: GERMANY

MXGP

Pos Nr Rider Nat. Fed. Bike Time laps Diff. First Diff. Prev. Bestlaptime in lap Speed
1 84 Herlings, Jeffrey NED KNMV KTM 35:12.176 19 0:00.000 0:00.000 1:46.860 5 51.8
2 243 Gajser, Tim SLO AMZS Honda 35:40.796 19 0:28.620 0:28.620 1:48.632 5 51
3 21 Paulin, Gautier FRA MCM Husqvarna 35:45.039 19 0:32.863 0:04.243 1:48.413 6 51.1
4 25 Desalle, Clement BEL FMB Kawasaki 36:00.899 19 0:48.723 0:15.860 1:49.236 3 50.7
5 222 Cairoli, Antonio ITA FMI KTM 36:10.341 19 0:58.165 0:09.442 1:49.071 6 50.8
6 259 Coldenhoff, Glenn NED KNMV KTM 36:15.402 19 1:03.226 0:05.061 1:49.476 5 50.6
7 461 Febvre, Romain FRA FFM Yamaha 36:22.791 19 1:10.615 0:07.389 1:48.717 5 50.9
8 12 Nagl, Maximilian GER DMSB TM 36:24.314 19 1:12.138 0:01.523 1:50.042 6 50.3
9 777 Bobryshev, Evgeny RUS MFR Suzuki 36:30.263 19 1:18.087 0:05.949 1:50.036 5 50.3
10 91 Seewer, Jeremy SUI FMS Yamaha 36:31.099 19 1:18.923 0:00.836 1:50.783 4 50
11 77 Lupino, Alessandro ITA FMI Kawasaki 36:39.562 19 1:27.386 0:08.463 1:50.199 5 50.3
12 99 Anstie, Max GBR ACU Husqvarna 36:49.486 19 1:37.310 0:09.924 1:51.168 8 49.8
13 17 Butron, Jose ESP RFME KTM 36:52.971 19 1:40.795 0:03.485 1:51.664 8 49.6
14 141 Desprey, Maxime FRA FFM Kawasaki 36:54.733 19 1:42.557 0:01.762 1:51.972 5 49.5
15 22 Strijbos, Kevin BEL FMB KTM 36:59.873 19 1:47.697 0:05.140 1:51.800 10 49.5
16 27 Jasikonis, Arminas LTU LMSF Honda 37:18.585 19 2:06.409 0:18.712 1:51.813 6 49.5
17 152 Petrov, Petar BUL BMF Honda 35:12.558 18 1 lap 1 lap 1:52.201 6 49.4
18 100 Searle, Tommy GBR ACU Kawasaki 35:14.510 18 1 lap 0:01.952 1:51.677 13 49.6
19 33 Lieber, Julien BEL FMB Kawasaki 35:16.160 18 1 lap 0:01.650 1:51.893 9 49.5
20 7 Leok, Tanel EST EMF Husqvarna 35:38.367 18 1 lap 0:22.207 1:53.026 4 49
21 613 Kovar, Vaclav CZE ACCR Gas Gas 35:58.779 18 1 lap 0:20.412 1:54.063 6 48.6
22 920 Valentin, Ander ESP RFME Husqvarna 36:05.565 18 1 lap 0:06.786 1:54.959 4 48.2
23 85 Ekerold, Stefan GER DMSB KTM 36:06.170 18 1 lap 0:00.605 1:53.418 5 48.8
24 83 Renkens, Nathan BEL FMB Honda 36:13.722 18 1 lap 0:07.552 1:55.072 9 48.1
25 926 Delince, Jeremy BEL FMB Honda 36:38.389 18 1 lap 0:24.667 1:55.018 3 48.2
26 93 Bengtsson, Jonathan SWE SVEMO KTM 37:09.103 18 1 lap 0:30.714 1:56.103 4 47.7
27 377 Krc, Martin CZE ACCR KTM 36:17.060 17 2 laps 1 lap 1:56.379 4 47.6
28 128 Monticelli, Ivo ITA FMI Yamaha 31:51.835 16 3 laps 1 lap 1:52.845 5 49.1
29 62 Gercar, Klemen SLO AMZS Husqvarna 20:16.136 10 9 laps 6 laps 1:53.739 4 48.7
30 15 Bonini, Davide ITA FMI KTM 14:42.180 7 12 laps 3 laps 1:55.123 7 48.1
31 89 Van Horebeek, Jeremy BEL FMB Yamaha 2:40.784 1 18 laps 6 laps 1:53.214 1 48.9

 

MX2

Pos Nr Rider Nat. Fed. Bike Time laps Diff. First Diff. Prev. Bestlaptime in lap Speed
1 61 Prado, Jorge ESP RFME KTM 34:32.231 18 0:00.000 0:00.000 1:49.949 4 50.4
2 1 Jonass, Pauls LAT LAMSF KTM 34:37.248 18 0:05.017 0:05.017 1:50.024 3 50.3
3 10 Vlaanderen, Calvin RSA KNMV Honda 34:42.298 18 0:10.067 0:05.050 1:51.066 5 49.9
4 919 Watson, Ben GBR ACU Yamaha 34:44.181 18 0:11.950 0:01.883 1:51.828 13 49.5
5 19 Olsen, Thomas Kjer DEN DMU Husqvarna 34:57.357 18 0:25.126 0:13.176 1:52.322 9 49.3
6 14 Beaton, Jed AUS MA Kawasaki 34:58.810 18 0:26.579 0:01.453 1:52.084 8 49.4
7 747 Cervellin, Michele ITA FMI Honda 35:05.960 18 0:33.729 0:07.150 1:52.584 18 49.2
8 29 Jacobi, Henry GER DMSB Husqvarna 35:07.751 18 0:35.520 0:01.791 1:50.925 3 49.9
9 46 Pootjes, Davy NED KNMV KTM 35:27.831 18 0:55.600 0:20.080 1:53.573 4 48.8
10 193 Geerts, Jago BEL FMB Yamaha 35:33.119 18 1:00.888 0:05.288 1:53.914 7 48.6
11 95 Furlotti, Simone ITA FMI Yamaha 35:36.782 18 1:04.551 0:03.663 1:54.065 10 48.6
12 172 Van doninck, Brent BEL FMB Husqvarna 35:38.202 18 1:05.971 0:01.420 1:54.265 9 48.5
13 127 Rodriguez, Anthony VEN FMV Yamaha 35:39.201 18 1:06.970 0:00.999 1:54.302 12 48.5
14 56 Weltin, Marshal USA AMA Honda 35:40.659 18 1:08.428 0:01.458 1:54.416 10 48.4
15 53 Walsh, Dylan NZL MNZ Husqvarna 35:49.296 18 1:17.065 0:08.637 1:53.830 2 48.7
16 226 Koch, Tom GER DMSB KTM 35:51.741 18 1:19.510 0:02.445 1:55.245 10 48.1
17 64 Covington, Thomas USA MUL Husqvarna 35:58.074 18 1:25.843 0:06.333 1:54.250 4 48.5
18 66 Larranaga Olano, Iker ESP RFME Husqvarna 36:08.980 18 1:36.749 0:10.906 1:54.165 4 48.5
19 931 Zanotti, Andrea SMR FSM Husqvarna 36:10.182 18 1:37.951 0:01.202 1:55.188 1 48.1
20 43 Bres, Natanael FRA FFM KTM 36:10.933 18 1:38.702 0:00.751 1:55.837 5 47.8
21 75 Roosiorg, Hardi EST EMF KTM 36:14.666 18 1:42.435 0:03.733 1:55.839 11 47.8
22 426 Mewse, Conrad GBR ACU KTM 36:18.170 18 1:45.939 0:03.504 1:55.221 5 48.1
23 44 Lesiardo, Morgan ITA FMI KTM 36:19.781 18 1:47.550 0:01.611 1:56.454 12 47.6
24 199 Zaragoza, Jorge ESP RFME Yamaha 36:48.904 18 2:16.673 0:29.123 1:55.993 7 47.7
25 101 Pichon, Zachary FRA FFM KTM 35:12.510 17 1 lap 1 lap 1:56.696 6 47.5
26 102 Sikyna, Richard SVK SMF KTM 35:15.921 17 1 lap 0:03.411 1:56.604 8 47.5
27 26 Bertuzzi, Nicola ITA FMI KTM 36:03.332 17 1 lap 0:47.411 1:56.613 3 47.5
28 872 Boisrame, Mathys FRA FFM Honda 22:21.637 11 7 laps 6 laps 1:55.331 9 48
29 338 Herbreteau, David FRA FFM KTM 21:07.906 10 8 laps 1 lap 1:56.499 8 47.5
30 34 De Waal, Micha-Boy NED KNMV Honda 16:27.930 8 10 laps 2 laps 1:54.167 6 48.5
31 321 Bernardini, Samuele ITA FMI TM 15:46.118 7 11 laps 1 lap 1:53.573 4 48.8

 

WMX

Pos Nr Rider Nat. Fed. Bike Time laps Diff. First Diff. Prev. Bestlaptime in lap Speed
1 151 Duncan, Courtney NZL MNZ Yamaha 26:02.489 12 0:00.000 0:00.000 2:02.990 2 45
2 8 Fontanesi, Kiara ITA FMI Yamaha 26:17.832 12 0:15.343 0:15.343 2:03.528 4 44.8
3 423 Papenmeier, Larissa GER DMSB Suzuki 26:26.893 12 0:24.404 0:09.061 2:06.656 12 43.7
4 85 Van De Ven, Nancy NED KNMV Yamaha 26:32.122 12 0:29.633 0:05.229 2:04.618 3 44.4
5 325 Andersen, Sara DEN DMU KTM 26:59.844 12 0:57.355 0:27.722 2:07.422 3 43.5
6 188 van der Vlist, Shana NED KNMV KTM 27:19.212 12 1:16.723 0:19.368 2:07.854 3 43.3
7 110 Laier, Stephanie GER DMSB KTM 27:19.372 12 1:16.883 0:00.160 2:09.335 12 42.8
8 44 Kane, Natalie IRL MCUI Honda 27:36.436 12 1:33.947 0:17.064 2:09.127 4 42.9
9 111 Borchers, Anne GER DMSB Suzuki 27:42.287 12 1:39.798 0:05.851 2:09.982 3 42.6
10 274 Verstappen, Amandine BEL FMB KTM 27:49.552 12 1:47.063 0:07.265 2:07.598 3 43.4
11 52 Charroux, Justine FRA FFM Yamaha 27:53.598 12 1:51.109 0:04.046 2:11.393 5 42.1
12 131 Dam, Line DEN DMU Honda 28:07.925 12 2:05.436 0:14.327 2:13.225 5 41.6
13 172 Valk, Lynn NED KNMV Yamaha 28:12.092 12 2:09.603 0:04.167 2:13.312 5 41.5
14 974 Lehmann, Janina GER DMSB Suzuki 26:07.261 11 1 lap 1 lap 2:14.405 4 41.2
15 193 Braam, Kimberley NED KNMV Kawasaki 26:08.479 11 1 lap 0:01.218 2:15.282 8 40.9
16 36 Berry, Avrie USA KNMV KTM 26:10.320 11 1 lap 0:01.841 2:14.394 7 41.2
17 14 Martinez, Mathilde FRA FFM KTM 26:29.465 11 1 lap 0:19.145 2:13.526 4 41.5
18 290 Denis, Mathilde FRA FFM Yamaha 26:35.267 11 1 lap 0:05.802 2:15.458 2 40.9
19 55 Irmgartz, Kim GER DMSB Suzuki 26:38.362 11 1 lap 0:03.095 2:15.055 4 41
20 25 Fisher, Stacey GBR ACU KTM 26:41.467 11 1 lap 0:03.105 2:16.087 5 40.7
21 386 Muilwijk, Lianne NED KNMV Kawasaki 26:48.562 11 1 lap 0:07.095 2:16.680 4 40.5
22 100 Burgmans, Eline NED KNMV KTM 26:54.761 11 1 lap 0:06.199 2:17.653 4 40.2
23 9 Germond, Virginie SUI FMS KTM 26:58.881 11 1 lap 0:04.120 2:13.770 8 41.4
24 699 Kapsamer , Elena AUT AMF KTM 27:06.797 11 1 lap 0:07.916 2:18.045 2 40.1
25 969 Hoppe, Fiona GER DMSB Suzuki 27:10.344 11 1 lap 0:03.547 2:18.359 4 40
26 62 Hofseth Pedersen, Madelen NOR NMF Yamaha 27:18.047 11 1 lap 0:07.703 2:17.879 5 40.2
27 143 Stoutjesdijk, Stephanie NED KNMV Husqvarna 27:52.588 11 1 lap 0:34.541 2:23.006 4 38.7
28 153 Aagaard, Barbara DEN DMU Yamaha 28:12.725 11 1 lap 0:20.137 2:22.290 4 38.9
29 99 Haudoire, Manon FRA FFM Yamaha 28:14.588 11 1 lap 0:01.863 2:25.206 8 38.1
30 203 Viaud, Camille FRA FFM Yamaha 28:23.249 11 1 lap 0:08.661 2:20.655 10 39.4
31 214 Soulier, Morgane FRA FFM Yamaha 26:06.992 10 2 laps 1 lap 2:25.808 10 38
32 777 Guryeva, Ekaterina RUS MFR KTM 26:09.940 10 2 laps 0:02.948 2:22.795 2 38.8
33 88 Deharbe, Charlotte FRA FFM Honda 26:41.392 10 2 laps 0:31.452 2:27.650 10 37.5
34 473 Degout, Julia GER DMSB Honda 28:10.529 10 2 laps 1:29.137 2:34.953 1 35.7
35 20 Schlosser, Tanja GER DMSB KTM 15:53.608 6 6 laps 4 laps 2:16.198 5 40.7
36 38 Kramell, Linda-Linsay GER DMSB Kawasaki 11:09.636 4 8 laps 2 laps 2:25.677 4 38
37 146 Michels, Lisa GER DMSB Yamaha 11:30.676 4 8 laps 0:21.040 2:16.304 3 40.6

 

EMX125

Pos Nr Rider Nat. Fed. Bike Time laps Diff. First Diff. Prev. Bestlaptime in lap Speed
1 101 Guadagnini, Mattia ITA FMI Husqvarna 29:20.023 14 0:00.000 0:00.000 1:59.461 2 46.4
2 11 Hofer, Rene AUT AMF KTM 29:20.410 14 0:00.387 0:00.387 2:00.328 2 46
3 651 Vettik, Meico EST EMF KTM 29:38.113 14 0:18.090 0:17.703 1:59.976 2 46.2
4 10 Dankers, Raivo NED KNMV KTM 29:42.735 14 0:22.712 0:04.622 2:01.355 3 45.6
5 270 Guyon, Tom FRA FFM KTM 29:44.074 14 0:24.051 0:01.339 2:01.188 3 45.7
6 98 Benistant, Thibault FRA FFM Yamaha 29:50.820 14 0:30.797 0:06.746 2:00.924 1 45.8
7 125 Weckman, Emil FIN SML KTM 30:04.615 14 0:44.592 0:13.795 2:02.407 1 45.2
8 313 Polak, Petr CZE ACCR KTM 30:14.332 14 0:54.309 0:09.717 2:04.807 8 44.4
9 239 Florian, Lion GER DMSB KTM 30:15.542 14 0:55.519 0:01.210 2:03.785 8 44.7
10 468 Olsson, Filip SWE SVEMO Husqvarna 30:21.686 14 1:01.663 0:06.144 2:04.370 7 44.5
11 217 Wade, Eddie GBR RFME KTM 30:23.952 14 1:03.929 0:02.266 2:02.592 7 45.2
12 249 Miot, Matheo FRA FFM KTM 30:56.592 14 1:36.569 0:32.640 2:04.910 3 44.3
13 771 Lucas Sanz, Mario ESP RFME KTM 30:58.994 14 1:38.971 0:02.402 2:05.726 4 44
14 505 Lüning, Arvid SWE SVEMO KTM 31:02.325 14 1:42.302 0:03.331 2:06.666 4 43.7
15 696 Gwerder, Mike SUI FMS KTM 31:04.824 14 1:44.801 0:02.499 2:04.399 2 44.5
16 247 Miot, Florian FRA FFM KTM 31:14.522 14 1:54.499 0:09.698 2:05.684 4 44.1
17 312 Oliver, Oriol ESP RFME KTM 31:16.780 14 1:56.757 0:02.258 2:06.100 7 43.9
18 38 Kovacs, Adam Zsolt HUN MAMS Yamaha 31:18.376 14 1:58.353 0:01.596 2:07.786 3 43.3
19 81 Meuwissen, Raf NED KNMV KTM 31:18.855 14 1:58.832 0:00.479 2:04.993 6 44.3
20 31 Bassi, Francesco ITA FMI Husqvarna 31:27.103 14 2:07.080 0:08.248 2:06.332 2 43.8
21 55 Corti, Lorenzo ITA FMI KTM 31:28.306 14 2:08.283 0:01.203 2:05.311 3 44.2
22 223 Bonacorsi, Andrea ITA FMI KTM 29:23.680 13 1 lap 1 lap 2:06.887 8 43.6
23 100 Talviku, Jorgen-Matthias EST EMF Yamaha 29:30.146 13 1 lap 0:06.466 2:04.104 6 44.6
24 108 Scott, James NZL MNZ KTM 29:41.266 13 1 lap 0:11.120 2:05.821 8 44
25 48 Collings, Adam GBR ACU KTM 29:45.651 13 1 lap 0:04.385 2:07.207 5 43.5
26 731 Mausser, Maks SLO AMZS Husqvarna 29:54.552 13 1 lap 0:08.901 2:10.396 8 42.5
27 224 Braceras Martinez, David ESP RFME KTM 30:07.674 13 1 lap 0:13.122 2:06.123 8 43.9
28 568 Palsson, Max SWE SVEMO KTM 30:11.872 13 1 lap 0:04.198 2:09.590 13 42.7
29 180 Ambjörnson, Leopold SWE SVEMO KTM 30:13.304 13 1 lap 0:01.432 2:10.948 12 42.3
30 516 Laengenfelder, Simon GER DMSB Husqvarna 30:31.101 13 1 lap 0:17.797 2:07.393 10 43.5
31 58 Durow, Cameron Anthony RSA KNMV KTM 30:42.003 13 1 lap 0:10.902 2:11.147 1 42.2
32 7 Spies, Maximilian GER DMSB Husqvarna 30:55.720 13 1 lap 0:13.717 2:12.516 13 41.8
33 475 Olsen, Oliver DEN DMU KTM 29:35.319 12 2 laps 1 lap 2:10.981 2 42.3
34 701 Falke, Laurenz GER DMSB Husqvarna 31:09.323 12 2 laps 1:34.004 2:06.766 10 43.7
35 75 Barcella, Alberto ITA FMI Husqvarna 14:15.294 6 8 laps 6 laps 2:09.399 4 42.8
36 22 Giuzio, Raffaele ITA FMI KTM 10:05.872 4 10 laps 2 laps 2:10.719 3 42.4
37 294 Facca, Alessandro ITA FMI KTM 7:28.033 3 11 laps 1 lap 2:08.399 2 43.1
38 268 Maupin, Thibault FRA FFM KTM 7:54.563 3 11 laps 0:26.530 2:12.513 3 41.8
39 440 Appelt, Marnique GER DMSB KTM 0:58.190 0 14 laps 3 laps 0:00.000   0
40 532 Valsecchi, Mirko ITA FMI KTM 0:00.000 -1 15 laps 1 lap 0:00.000   0

Credit: MXGP